Anabel, Missouri
Current Conditions -  °F | °C
As of 6:55 PM on Friday 31 Oct 2014 (Local Time) from KIRK Reporting Station
Clear Clear  
Wind Chill: 29°   Ceiling: Unl
Heat Index: 35°   Visibility: 10mi
Dew Point: 21°   Wind: 7mph
Humidity: 57%   Direction: 350°N
Pressure: 30.43"   Gusts: NA
Location:  39.75°N, 92.34°W
Report Text: KIRK 312355Z AUTO 35006KT 10SM CLR 02/M06 A3043 RMK AO2 SLP317 T00171061 10067 20017 53011
Loading
Personal Weather Stations






























Interactive Weather Map
Tropical Storm Tracking
New forecast layout! Learn more

10-Day Weather Forecast

Advertisements
Track Severe Weather on mobile